sensor_id;sensor_type;location;lat;lon;timestamp;P1;durP1;ratioP1;P2;durP2;ratioP2
25449;SDS011;13371;52.080;5.624;2023-04-15T00:01:58;6.95;;;2.40;;
25449;SDS011;13371;52.080;5.624;2023-04-15T00:04:24;4.18;;;2.38;;
25449;SDS011;13371;52.080;5.624;2023-04-15T00:06:50;8.25;;;2.40;;
25449;SDS011;13371;52.080;5.624;2023-04-15T00:09:19;6.53;;;2.55;;
25449;SDS011;13371;52.080;5.624;2023-04-15T00:11:45;7.28;;;2.33;;
25449;SDS011;13371;52.080;5.624;2023-04-15T00:14:11;9.52;;;2.95;;
25449;SDS011;13371;52.080;5.624;2023-04-15T00:16:37;5.65;;;2.28;;
25449;SDS011;13371;52.080;5.624;2023-04-15T00:19:03;3.72;;;2.45;;
25449;SDS011;13371;52.080;5.624;2023-04-15T00:21:29;4.70;;;2.40;;
25449;SDS011;13371;52.080;5.624;2023-04-15T00:23:54;7.45;;;3.08;;
25449;SDS011;13371;52.080;5.624;2023-04-15T00:26:20;3.53;;;1.90;;
25449;SDS011;13371;52.080;5.624;2023-04-15T00:28:46;6.88;;;3.30;;
25449;SDS011;13371;52.080;5.624;2023-04-15T00:31:11;6.55;;;3.15;;
25449;SDS011;13371;52.080;5.624;2023-04-15T00:33:37;6.30;;;2.63;;
25449;SDS011;13371;52.080;5.624;2023-04-15T00:36:03;7.78;;;2.65;;
25449;SDS011;13371;52.080;5.624;2023-04-15T00:38:30;5.90;;;2.58;;
25449;SDS011;13371;52.080;5.624;2023-04-15T00:40:56;6.63;;;2.47;;
25449;SDS011;13371;52.080;5.624;2023-04-15T00:43:21;8.40;;;2.88;;
25449;SDS011;13371;52.080;5.624;2023-04-15T00:45:47;5.20;;;2.42;;
25449;SDS011;13371;52.080;5.624;2023-04-15T00:48:12;5.22;;;2.33;;
25449;SDS011;13371;52.080;5.624;2023-04-15T00:50:39;6.38;;;2.47;;
25449;SDS011;13371;52.080;5.624;2023-04-15T00:53:05;9.55;;;2.90;;
25449;SDS011;13371;52.080;5.624;2023-04-15T00:55:31;3.67;;;2.30;;
25449;SDS011;13371;52.080;5.624;2023-04-15T00:57:56;9.75;;;2.85;;
25449;SDS011;13371;52.080;5.624;2023-04-15T01:00:22;6.22;;;2.75;;
25449;SDS011;13371;52.080;5.624;2023-04-15T01:02:48;5.95;;;2.95;;
25449;SDS011;13371;52.080;5.624;2023-04-15T01:05:14;7.10;;;2.63;;
25449;SDS011;13371;52.080;5.624;2023-04-15T01:07:42;9.35;;;3.78;;
25449;SDS011;13371;52.080;5.624;2023-04-15T01:10:08;4.35;;;2.55;;
25449;SDS011;13371;52.080;5.624;2023-04-15T01:12:34;4.60;;;2.40;;
25449;SDS011;13371;52.080;5.624;2023-04-15T01:15:01;7.28;;;3.40;;
25449;SDS011;13371;52.080;5.624;2023-04-15T01:17:27;8.45;;;3.15;;
25449;SDS011;13371;52.080;5.624;2023-04-15T01:19:53;6.60;;;2.47;;
25449;SDS011;13371;52.080;5.624;2023-04-15T01:22:22;6.47;;;2.65;;
25449;SDS011;13371;52.080;5.624;2023-04-15T01:24:54;8.98;;;2.67;;
25449;SDS011;13371;52.080;5.624;2023-04-15T01:27:30;5.80;;;2.97;;
25449;SDS011;13371;52.080;5.624;2023-04-15T01:29:56;4.93;;;2.70;;
25449;SDS011;13371;52.080;5.624;2023-04-15T01:32:22;4.70;;;2.58;;
25449;SDS011;13371;52.080;5.624;2023-04-15T01:34:48;4.50;;;2.63;;
25449;SDS011;13371;52.080;5.624;2023-04-15T01:37:13;6.68;;;3.20;;
25449;SDS011;13371;52.080;5.624;2023-04-15T01:39:39;4.22;;;2.50;;
25449;SDS011;13371;52.080;5.624;2023-04-15T01:42:05;6.50;;;3.20;;
25449;SDS011;13371;52.080;5.624;2023-04-15T01:44:31;9.18;;;2.75;;
25449;SDS011;13371;52.080;5.624;2023-04-15T01:46:56;6.65;;;2.95;;
25449;SDS011;13371;52.080;5.624;2023-04-15T01:49:22;6.25;;;2.70;;
25449;SDS011;13371;52.080;5.624;2023-04-15T01:51:48;4.30;;;2.38;;
25449;SDS011;13371;52.080;5.624;2023-04-15T01:54:13;6.63;;;3.25;;
25449;SDS011;13371;52.080;5.624;2023-04-15T01:56:39;7.38;;;2.97;;
25449;SDS011;13371;52.080;5.624;2023-04-15T01:59:04;12.20;;;3.38;;
25449;SDS011;13371;52.080;5.624;2023-04-15T02:01:30;6.78;;;3.33;;
25449;SDS011;13371;52.080;5.624;2023-04-15T02:03:55;4.80;;;3.00;;
25449;SDS011;13371;52.080;5.624;2023-04-15T02:06:21;5.55;;;2.53;;
25449;SDS011;13371;52.080;5.624;2023-04-15T02:08:47;4.55;;;2.83;;
25449;SDS011;13371;52.080;5.624;2023-04-15T02:11:13;5.85;;;3.20;;
25449;SDS011;13371;52.080;5.624;2023-04-15T02:13:39;6.50;;;2.58;;
25449;SDS011;13371;52.080;5.624;2023-04-15T02:16:14;5.80;;;3.72;;
25449;SDS011;13371;52.080;5.624;2023-04-15T02:18:41;8.45;;;3.03;;
25449;SDS011;13371;52.080;5.624;2023-04-15T02:21:07;7.20;;;3.08;;
25449;SDS011;13371;52.080;5.624;2023-04-15T02:23:32;6.25;;;2.95;;
25449;SDS011;13371;52.080;5.624;2023-04-15T02:25:58;7.30;;;3.10;;
25449;SDS011;13371;52.080;5.624;2023-04-15T02:28:24;9.10;;;3.13;;
25449;SDS011;13371;52.080;5.624;2023-04-15T02:30:49;5.80;;;3.00;;
25449;SDS011;13371;52.080;5.624;2023-04-15T02:33:16;4.82;;;3.22;;
25449;SDS011;13371;52.080;5.624;2023-04-15T02:35:42;7.18;;;3.33;;
25449;SDS011;13371;52.080;5.624;2023-04-15T02:38:09;8.25;;;3.92;;
25449;SDS011;13371;52.080;5.624;2023-04-15T02:40:35;7.25;;;2.83;;
25449;SDS011;13371;52.080;5.624;2023-04-15T02:43:01;8.48;;;3.42;;
25449;SDS011;13371;52.080;5.624;2023-04-15T02:45:27;6.20;;;3.20;;
25449;SDS011;13371;52.080;5.624;2023-04-15T02:47:52;7.75;;;3.10;;
25449;SDS011;13371;52.080;5.624;2023-04-15T02:50:18;9.00;;;3.30;;
25449;SDS011;13371;52.080;5.624;2023-04-15T02:52:44;5.68;;;3.33;;
25449;SDS011;13371;52.080;5.624;2023-04-15T02:55:10;10.52;;;3.58;;
25449;SDS011;13371;52.080;5.624;2023-04-15T02:57:36;6.07;;;3.63;;
25449;SDS011;13371;52.080;5.624;2023-04-15T03:00:03;6.38;;;3.00;;
25449;SDS011;13371;52.080;5.624;2023-04-15T03:02:33;9.25;;;3.35;;
25449;SDS011;13371;52.080;5.624;2023-04-15T03:05:00;4.82;;;3.03;;
25449;SDS011;13371;52.080;5.624;2023-04-15T03:07:25;5.90;;;3.63;;
25449;SDS011;13371;52.080;5.624;2023-04-15T03:09:51;6.82;;;3.83;;
25449;SDS011;13371;52.080;5.624;2023-04-15T03:12:16;9.15;;;3.88;;
25449;SDS011;13371;52.080;5.624;2023-04-15T03:14:42;11.07;;;3.53;;
25449;SDS011;13371;52.080;5.624;2023-04-15T03:17:07;7.75;;;3.83;;
25449;SDS011;13371;52.080;5.624;2023-04-15T03:19:33;7.55;;;3.70;;
25449;SDS011;13371;52.080;5.624;2023-04-15T03:21:59;6.95;;;3.22;;
25449;SDS011;13371;52.080;5.624;2023-04-15T03:24:24;10.88;;;4.38;;
25449;SDS011;13371;52.080;5.624;2023-04-15T03:26:51;6.13;;;2.92;;
25449;SDS011;13371;52.080;5.624;2023-04-15T03:29:16;6.82;;;4.00;;
25449;SDS011;13371;52.080;5.624;2023-04-15T03:31:42;6.78;;;3.53;;
25449;SDS011;13371;52.080;5.624;2023-04-15T03:34:07;7.43;;;4.20;;
25449;SDS011;13371;52.080;5.624;2023-04-15T03:36:33;9.02;;;3.95;;
25449;SDS011;13371;52.080;5.624;2023-04-15T03:38:58;7.03;;;3.97;;
25449;SDS011;13371;52.080;5.624;2023-04-15T03:41:26;8.77;;;4.00;;
25449;SDS011;13371;52.080;5.624;2023-04-15T03:43:52;7.68;;;3.42;;
25449;SDS011;13371;52.080;5.624;2023-04-15T03:46:17;13.48;;;3.95;;
25449;SDS011;13371;52.080;5.624;2023-04-15T03:48:43;6.32;;;3.75;;
25449;SDS011;13371;52.080;5.624;2023-04-15T03:51:09;9.88;;;4.35;;
25449;SDS011;13371;52.080;5.624;2023-04-15T03:53:35;8.57;;;4.47;;
25449;SDS011;13371;52.080;5.624;2023-04-15T03:56:01;6.65;;;3.78;;
25449;SDS011;13371;52.080;5.624;2023-04-15T03:58:26;7.32;;;3.17;;
25449;SDS011;13371;52.080;5.624;2023-04-15T04:00:52;5.95;;;3.58;;
25449;SDS011;13371;52.080;5.624;2023-04-15T04:03:18;10.60;;;3.92;;
25449;SDS011;13371;52.080;5.624;2023-04-15T04:05:44;12.25;;;3.85;;
25449;SDS011;13371;52.080;5.624;2023-04-15T04:08:10;9.10;;;3.60;;
25449;SDS011;13371;52.080;5.624;2023-04-15T04:10:38;7.53;;;4.13;;
25449;SDS011;13371;52.080;5.624;2023-04-15T04:13:03;6.47;;;3.88;;
25449;SDS011;13371;52.080;5.624;2023-04-15T04:15:29;8.32;;;3.85;;
25449;SDS011;13371;52.080;5.624;2023-04-15T04:17:55;6.30;;;4.00;;
25449;SDS011;13371;52.080;5.624;2023-04-15T04:20:21;7.45;;;3.72;;
25449;SDS011;13371;52.080;5.624;2023-04-15T04:22:46;5.93;;;3.05;;
25449;SDS011;13371;52.080;5.624;2023-04-15T04:25:12;9.25;;;4.57;;
25449;SDS011;13371;52.080;5.624;2023-04-15T04:27:38;8.35;;;3.75;;
25449;SDS011;13371;52.080;5.624;2023-04-15T04:30:04;8.73;;;3.97;;
25449;SDS011;13371;52.080;5.624;2023-04-15T04:32:30;10.23;;;4.10;;
25449;SDS011;13371;52.080;5.624;2023-04-15T04:34:56;9.50;;;4.25;;
25449;SDS011;13371;52.080;5.624;2023-04-15T04:37:21;5.93;;;3.70;;
25449;SDS011;13371;52.080;5.624;2023-04-15T04:39:48;6.55;;;3.80;;
25449;SDS011;13371;52.080;5.624;2023-04-15T04:42:14;9.57;;;4.45;;
25449;SDS011;13371;52.080;5.624;2023-04-15T04:44:40;9.68;;;4.57;;
25449;SDS011;13371;52.080;5.624;2023-04-15T04:47:05;6.80;;;4.15;;
25449;SDS011;13371;52.080;5.624;2023-04-15T04:49:31;8.60;;;3.80;;
25449;SDS011;13371;52.080;5.624;2023-04-15T04:51:57;7.40;;;4.18;;
25449;SDS011;13371;52.080;5.624;2023-04-15T04:54:23;8.52;;;4.07;;
25449;SDS011;13371;52.080;5.624;2023-04-15T04:56:56;9.13;;;4.68;;
25449;SDS011;13371;52.080;5.624;2023-04-15T04:59:23;8.98;;;4.97;;
25449;SDS011;13371;52.080;5.624;2023-04-15T05:01:48;8.48;;;4.47;;
25449;SDS011;13371;52.080;5.624;2023-04-15T05:04:14;8.30;;;4.40;;
25449;SDS011;13371;52.080;5.624;2023-04-15T05:06:40;8.63;;;4.38;;
25449;SDS011;13371;52.080;5.624;2023-04-15T05:09:05;9.82;;;4.18;;
25449;SDS011;13371;52.080;5.624;2023-04-15T05:11:31;6.70;;;4.15;;
25449;SDS011;13371;52.080;5.624;2023-04-15T05:13:57;11.32;;;4.57;;
25449;SDS011;13371;52.080;5.624;2023-04-15T05:16:25;7.80;;;4.57;;
25449;SDS011;13371;52.080;5.624;2023-04-15T05:18:51;8.02;;;4.28;;
25449;SDS011;13371;52.080;5.624;2023-04-15T05:21:16;7.43;;;4.35;;
25449;SDS011;13371;52.080;5.624;2023-04-15T05:23:42;10.23;;;4.60;;
25449;SDS011;13371;52.080;5.624;2023-04-15T05:26:11;8.18;;;4.00;;
25449;SDS011;13371;52.080;5.624;2023-04-15T05:28:36;9.02;;;4.20;;
25449;SDS011;13371;52.080;5.624;2023-04-15T05:31:02;7.28;;;4.05;;
25449;SDS011;13371;52.080;5.624;2023-04-15T05:33:28;7.55;;;4.53;;
25449;SDS011;13371;52.080;5.624;2023-04-15T05:35:55;8.82;;;4.00;;
25449;SDS011;13371;52.080;5.624;2023-04-15T05:38:21;13.45;;;3.92;;
25449;SDS011;13371;52.080;5.624;2023-04-15T05:40:47;7.82;;;4.72;;
25449;SDS011;13371;52.080;5.624;2023-04-15T05:43:12;9.25;;;5.15;;
25449;SDS011;13371;52.080;5.624;2023-04-15T05:45:38;9.15;;;4.43;;
25449;SDS011;13371;52.080;5.624;2023-04-15T05:48:04;11.20;;;4.97;;
25449;SDS011;13371;52.080;5.624;2023-04-15T05:50:29;7.53;;;4.45;;
25449;SDS011;13371;52.080;5.624;2023-04-15T05:52:55;10.23;;;4.85;;
25449;SDS011;13371;52.080;5.624;2023-04-15T05:55:21;10.95;;;4.88;;
25449;SDS011;13371;52.080;5.624;2023-04-15T05:57:46;8.35;;;4.38;;
25449;SDS011;13371;52.080;5.624;2023-04-15T06:00:12;10.27;;;5.28;;
25449;SDS011;13371;52.080;5.624;2023-04-15T06:02:38;8.30;;;4.75;;
25449;SDS011;13371;52.080;5.624;2023-04-15T06:05:04;9.55;;;4.93;;
25449;SDS011;13371;52.080;5.624;2023-04-15T06:07:34;7.68;;;5.13;;
25449;SDS011;13371;52.080;5.624;2023-04-15T06:10:01;11.00;;;5.47;;
25449;SDS011;13371;52.080;5.624;2023-04-15T06:12:27;8.65;;;4.90;;
25449;SDS011;13371;52.080;5.624;2023-04-15T06:14:52;8.20;;;4.70;;
25449;SDS011;13371;52.080;5.624;2023-04-15T06:17:18;9.80;;;5.03;;
25449;SDS011;13371;52.080;5.624;2023-04-15T06:19:43;9.75;;;5.65;;
25449;SDS011;13371;52.080;5.624;2023-04-15T06:22:09;11.63;;;5.20;;
25449;SDS011;13371;52.080;5.624;2023-04-15T06:24:35;8.60;;;5.38;;
25449;SDS011;13371;52.080;5.624;2023-04-15T06:27:01;11.90;;;6.07;;
25449;SDS011;13371;52.080;5.624;2023-04-15T06:29:27;9.27;;;4.72;;
25449;SDS011;13371;52.080;5.624;2023-04-15T06:31:52;10.38;;;5.93;;
25449;SDS011;13371;52.080;5.624;2023-04-15T06:34:18;10.05;;;5.68;;
25449;SDS011;13371;52.080;5.624;2023-04-15T06:36:44;9.13;;;4.95;;
25449;SDS011;13371;52.080;5.624;2023-04-15T06:39:09;12.13;;;6.32;;
25449;SDS011;13371;52.080;5.624;2023-04-15T06:41:35;10.70;;;5.10;;
25449;SDS011;13371;52.080;5.624;2023-04-15T06:44:01;9.80;;;5.28;;
25449;SDS011;13371;52.080;5.624;2023-04-15T06:46:27;8.90;;;4.22;;
25449;SDS011;13371;52.080;5.624;2023-04-15T06:48:52;9.88;;;5.78;;
25449;SDS011;13371;52.080;5.624;2023-04-15T06:51:18;10.23;;;5.63;;
25449;SDS011;13371;52.080;5.624;2023-04-15T06:53:43;8.90;;;4.57;;
25449;SDS011;13371;52.080;5.624;2023-04-15T06:56:09;7.28;;;4.82;;
25449;SDS011;13371;52.080;5.624;2023-04-15T06:58:34;10.20;;;5.70;;
25449;SDS011;13371;52.080;5.624;2023-04-15T07:01:00;7.75;;;4.72;;
25449;SDS011;13371;52.080;5.624;2023-04-15T07:03:27;10.73;;;5.40;;
25449;SDS011;13371;52.080;5.624;2023-04-15T07:05:53;11.27;;;5.22;;
25449;SDS011;13371;52.080;5.624;2023-04-15T07:08:18;11.43;;;5.88;;
25449;SDS011;13371;52.080;5.624;2023-04-15T07:10:45;10.07;;;5.78;;
25449;SDS011;13371;52.080;5.624;2023-04-15T07:13:11;11.70;;;6.18;;
25449;SDS011;13371;52.080;5.624;2023-04-15T07:15:37;11.93;;;5.60;;
25449;SDS011;13371;52.080;5.624;2023-04-15T07:18:02;12.98;;;5.80;;
25449;SDS011;13371;52.080;5.624;2023-04-15T07:20:28;10.50;;;5.32;;
25449;SDS011;13371;52.080;5.624;2023-04-15T07:22:53;8.00;;;4.85;;
25449;SDS011;13371;52.080;5.624;2023-04-15T07:25:19;8.30;;;4.63;;
25449;SDS011;13371;52.080;5.624;2023-04-15T07:27:45;9.27;;;4.97;;
25449;SDS011;13371;52.080;5.624;2023-04-15T07:30:11;8.48;;;4.20;;
25449;SDS011;13371;52.080;5.624;2023-04-15T07:32:37;7.30;;;4.15;;
25449;SDS011;13371;52.080;5.624;2023-04-15T07:35:03;8.25;;;4.03;;
25449;SDS011;13371;52.080;5.624;2023-04-15T07:37:28;5.75;;;3.60;;
25449;SDS011;13371;52.080;5.624;2023-04-15T07:39:54;7.70;;;3.72;;
25449;SDS011;13371;52.080;5.624;2023-04-15T07:42:20;5.93;;;3.72;;
25449;SDS011;13371;52.080;5.624;2023-04-15T07:44:46;9.07;;;4.05;;
25449;SDS011;13371;52.080;5.624;2023-04-15T07:47:11;6.13;;;3.00;;
25449;SDS011;13371;52.080;5.624;2023-04-15T07:49:37;7.30;;;3.65;;
25449;SDS011;13371;52.080;5.624;2023-04-15T07:52:03;7.93;;;3.90;;
25449;SDS011;13371;52.080;5.624;2023-04-15T07:54:28;8.02;;;3.80;;
25449;SDS011;13371;52.080;5.624;2023-04-15T07:56:54;8.35;;;3.38;;
25449;SDS011;13371;52.080;5.624;2023-04-15T07:59:20;8.05;;;3.53;;
25449;SDS011;13371;52.080;5.624;2023-04-15T08:01:46;7.25;;;3.65;;
25449;SDS011;13371;52.080;5.624;2023-04-15T08:04:12;7.30;;;3.63;;
25449;SDS011;13371;52.080;5.624;2023-04-15T08:06:38;7.47;;;3.60;;
25449;SDS011;13371;52.080;5.624;2023-04-15T08:09:04;7.05;;;3.22;;
25449;SDS011;13371;52.080;5.624;2023-04-15T08:11:32;6.45;;;3.65;;
25449;SDS011;13371;52.080;5.624;2023-04-15T08:13:57;7.45;;;4.22;;
25449;SDS011;13371;52.080;5.624;2023-04-15T08:16:24;7.57;;;3.80;;
25449;SDS011;13371;52.080;5.624;2023-04-15T08:18:53;5.80;;;3.38;;
25449;SDS011;13371;52.080;5.624;2023-04-15T08:21:19;9.57;;;4.38;;
25449;SDS011;13371;52.080;5.624;2023-04-15T08:23:46;9.45;;;4.55;;
25449;SDS011;13371;52.080;5.624;2023-04-15T08:26:14;10.40;;;5.50;;
25449;SDS011;13371;52.080;5.624;2023-04-15T08:28:40;6.97;;;4.15;;
25449;SDS011;13371;52.080;5.624;2023-04-15T08:31:06;7.65;;;4.25;;
25449;SDS011;13371;52.080;5.624;2023-04-15T08:33:33;10.73;;;4.68;;
25449;SDS011;13371;52.080;5.624;2023-04-15T08:35:58;9.45;;;4.90;;
25449;SDS011;13371;52.080;5.624;2023-04-15T08:38:24;7.45;;;3.70;;
25449;SDS011;13371;52.080;5.624;2023-04-15T08:40:50;11.25;;;4.93;;
25449;SDS011;13371;52.080;5.624;2023-04-15T08:43:23;7.72;;;3.80;;
25449;SDS011;13371;52.080;5.624;2023-04-15T08:45:52;11.48;;;3.88;;
25449;SDS011;13371;52.080;5.624;2023-04-15T08:48:19;6.45;;;3.22;;
25449;SDS011;13371;52.080;5.624;2023-04-15T08:50:46;6.45;;;3.47;;
25449;SDS011;13371;52.080;5.624;2023-04-15T08:53:12;6.65;;;3.08;;
25449;SDS011;13371;52.080;5.624;2023-04-15T08:55:41;7.63;;;3.28;;
25449;SDS011;13371;52.080;5.624;2023-04-15T08:58:11;6.90;;;3.63;;
25449;SDS011;13371;52.080;5.624;2023-04-15T09:00:38;8.07;;;3.53;;
25449;SDS011;13371;52.080;5.624;2023-04-15T09:03:04;6.75;;;3.53;;
25449;SDS011;13371;52.080;5.624;2023-04-15T09:05:32;6.63;;;3.30;;
25449;SDS011;13371;52.080;5.624;2023-04-15T09:07:58;4.82;;;2.85;;
25449;SDS011;13371;52.080;5.624;2023-04-15T09:10:24;5.35;;;3.00;;
25449;SDS011;13371;52.080;5.624;2023-04-15T09:12:49;3.55;;;2.50;;
25449;SDS011;13371;52.080;5.624;2023-04-15T09:15:15;4.35;;;2.60;;
25449;SDS011;13371;52.080;5.624;2023-04-15T09:17:44;4.78;;;1.98;;
25449;SDS011;13371;52.080;5.624;2023-04-15T09:20:14;3.38;;;1.70;;
25449;SDS011;13371;52.080;5.624;2023-04-15T09:22:43;3.10;;;1.73;;
25449;SDS011;13371;52.080;5.624;2023-04-15T09:27:48;3.55;;;1.55;;
25449;SDS011;13371;52.080;5.624;2023-04-15T09:30:14;3.05;;;1.77;;
25449;SDS011;13371;52.080;5.624;2023-04-15T09:32:53;5.05;;;2.10;;
25449;SDS011;13371;52.080;5.624;2023-04-15T09:35:22;4.57;;;2.08;;
25449;SDS011;13371;52.080;5.624;2023-04-15T09:37:49;4.40;;;2.10;;
25449;SDS011;13371;52.080;5.624;2023-04-15T09:40:29;2.60;;;1.70;;
25449;SDS011;13371;52.080;5.624;2023-04-15T09:43:00;3.40;;;1.67;;
25449;SDS011;13371;52.080;5.624;2023-04-15T09:45:26;3.85;;;1.92;;
25449;SDS011;13371;52.080;5.624;2023-04-15T09:47:52;4.45;;;1.67;;
25449;SDS011;13371;52.080;5.624;2023-04-15T09:50:18;3.83;;;1.85;;
25449;SDS011;13371;52.080;5.624;2023-04-15T09:52:44;3.35;;;1.98;;
25449;SDS011;13371;52.080;5.624;2023-04-15T09:55:11;5.10;;;2.13;;
25449;SDS011;13371;52.080;5.624;2023-04-15T09:57:38;2.33;;;1.48;;
25449;SDS011;13371;52.080;5.624;2023-04-15T10:00:06;2.63;;;1.38;;
25449;SDS011;13371;52.080;5.624;2023-04-15T10:02:33;3.28;;;1.90;;
25449;SDS011;13371;52.080;5.624;2023-04-15T10:05:00;4.70;;;1.75;;
25449;SDS011;13371;52.080;5.624;2023-04-15T10:07:26;2.97;;;1.60;;
25449;SDS011;13371;52.080;5.624;2023-04-15T10:09:55;3.28;;;1.50;;
25449;SDS011;13371;52.080;5.624;2023-04-15T10:12:48;3.10;;;1.77;;
25449;SDS011;13371;52.080;5.624;2023-04-15T10:15:19;3.55;;;2.10;;
25449;SDS011;13371;52.080;5.624;2023-04-15T10:17:45;3.65;;;2.08;;
25449;SDS011;13371;52.080;5.624;2023-04-15T10:20:20;3.50;;;1.80;;
25449;SDS011;13371;52.080;5.624;2023-04-15T10:22:47;3.63;;;1.90;;
25449;SDS011;13371;52.080;5.624;2023-04-15T10:25:13;3.15;;;2.05;;
25449;SDS011;13371;52.080;5.624;2023-04-15T10:27:39;4.22;;;2.05;;
25449;SDS011;13371;52.080;5.624;2023-04-15T10:30:08;4.70;;;2.10;;
25449;SDS011;13371;52.080;5.624;2023-04-15T10:32:37;4.18;;;2.28;;
25449;SDS011;13371;52.080;5.624;2023-04-15T10:35:04;3.65;;;1.90;;
25449;SDS011;13371;52.080;5.624;2023-04-15T10:37:34;3.45;;;1.80;;
25449;SDS011;13371;52.080;5.624;2023-04-15T10:40:22;3.80;;;1.88;;
25449;SDS011;13371;52.080;5.624;2023-04-15T10:42:57;4.10;;;2.17;;
25449;SDS011;13371;52.080;5.624;2023-04-15T10:45:25;4.13;;;2.10;;
25449;SDS011;13371;52.080;5.624;2023-04-15T10:48:01;5.30;;;2.17;;
25449;SDS011;13371;52.080;5.624;2023-04-15T10:50:32;4.38;;;1.90;;
25449;SDS011;13371;52.080;5.624;2023-04-15T10:53:09;3.05;;;1.75;;
25449;SDS011;13371;52.080;5.624;2023-04-15T10:55:38;4.75;;;2.20;;
25449;SDS011;13371;52.080;5.624;2023-04-15T10:58:03;4.20;;;2.25;;
25449;SDS011;13371;52.080;5.624;2023-04-15T11:00:30;4.25;;;2.00;;
25449;SDS011;13371;52.080;5.624;2023-04-15T11:08:03;4.03;;;1.98;;
25449;SDS011;13371;52.080;5.624;2023-04-15T11:15:39;3.05;;;1.73;;
25449;SDS011;13371;52.080;5.624;2023-04-15T11:18:25;5.57;;;1.48;;
25449;SDS011;13371;52.080;5.624;2023-04-15T11:20:53;3.25;;;1.80;;
25449;SDS011;13371;52.080;5.624;2023-04-15T11:23:27;2.97;;;1.67;;
25449;SDS011;13371;52.080;5.624;2023-04-15T11:25:55;2.10;;;1.30;;
25449;SDS011;13371;52.080;5.624;2023-04-15T11:28:24;3.38;;;1.52;;
25449;SDS011;13371;52.080;5.624;2023-04-15T11:30:53;3.22;;;1.42;;
25449;SDS011;13371;52.080;5.624;2023-04-15T11:33:19;2.83;;;1.55;;
25449;SDS011;13371;52.080;5.624;2023-04-15T11:35:46;3.00;;;1.70;;
25449;SDS011;13371;52.080;5.624;2023-04-15T11:38:12;4.03;;;1.77;;
25449;SDS011;13371;52.080;5.624;2023-04-15T11:40:39;2.15;;;1.13;;
25449;SDS011;13371;52.080;5.624;2023-04-15T11:45:49;2.60;;;1.25;;
25449;SDS011;13371;52.080;5.624;2023-04-15T11:48:34;1.80;;;1.30;;
25449;SDS011;13371;52.080;5.624;2023-04-15T11:51:03;1.67;;;1.10;;
25449;SDS011;13371;52.080;5.624;2023-04-15T11:54:03;2.22;;;1.15;;
25449;SDS011;13371;52.080;5.624;2023-04-15T11:56:23;2.08;;;1.05;;
25449;SDS011;13371;52.080;5.624;2023-04-15T11:58:54;1.55;;;1.00;;
25449;SDS011;13371;52.080;5.624;2023-04-15T12:01:29;2.92;;;1.27;;
25449;SDS011;13371;52.080;5.624;2023-04-15T12:03:56;2.40;;;1.40;;
25449;SDS011;13371;52.080;5.624;2023-04-15T12:06:23;2.88;;;1.55;;
25449;SDS011;13371;52.080;5.624;2023-04-15T12:11:38;2.28;;;1.67;;
25449;SDS011;13371;52.080;5.624;2023-04-15T12:16:40;4.03;;;1.50;;
25449;SDS011;13371;52.080;5.624;2023-04-15T12:19:12;4.25;;;1.48;;
25449;SDS011;13371;52.080;5.624;2023-04-15T12:21:39;3.40;;;2.22;;
25449;SDS011;13371;52.080;5.624;2023-04-15T12:24:08;2.08;;;1.20;;
25449;SDS011;13371;52.080;5.624;2023-04-15T12:29:17;1.65;;;1.08;;
25449;SDS011;13371;52.080;5.624;2023-04-15T12:31:54;2.33;;;1.02;;
25449;SDS011;13371;52.080;5.624;2023-04-15T12:34:41;2.22;;;0.88;;
25449;SDS011;13371;52.080;5.624;2023-04-15T12:37:14;2.47;;;1.10;;
25449;SDS011;13371;52.080;5.624;2023-04-15T12:39:40;1.20;;;0.82;;
25449;SDS011;13371;52.080;5.624;2023-04-15T12:42:07;5.20;;;1.13;;
25449;SDS011;13371;52.080;5.624;2023-04-15T12:44:36;2.20;;;0.93;;
25449;SDS011;13371;52.080;5.624;2023-04-15T12:47:02;2.97;;;1.10;;
25449;SDS011;13371;52.080;5.624;2023-04-15T12:49:28;1.95;;;1.20;;
25449;SDS011;13371;52.080;5.624;2023-04-15T12:51:55;2.45;;;1.17;;
25449;SDS011;13371;52.080;5.624;2023-04-15T12:54:21;1.52;;;1.00;;
25449;SDS011;13371;52.080;5.624;2023-04-15T12:56:47;2.47;;;1.17;;
25449;SDS011;13371;52.080;5.624;2023-04-15T12:59:14;3.13;;;1.30;;
25449;SDS011;13371;52.080;5.624;2023-04-15T13:01:42;3.25;;;1.05;;
25449;SDS011;13371;52.080;5.624;2023-04-15T13:04:08;2.42;;;1.00;;
25449;SDS011;13371;52.080;5.624;2023-04-15T13:06:33;2.10;;;0.90;;
25449;SDS011;13371;52.080;5.624;2023-04-15T13:08:59;1.42;;;0.82;;
25449;SDS011;13371;52.080;5.624;2023-04-15T13:11:25;2.30;;;1.00;;
25449;SDS011;13371;52.080;5.624;2023-04-15T13:13:53;3.67;;;1.08;;
25449;SDS011;13371;52.080;5.624;2023-04-15T13:16:19;2.42;;;0.82;;
25449;SDS011;13371;52.080;5.624;2023-04-15T13:18:45;1.77;;;0.90;;
25449;SDS011;13371;52.080;5.624;2023-04-15T13:21:12;1.10;;;0.82;;
25449;SDS011;13371;52.080;5.624;2023-04-15T13:23:37;1.95;;;1.15;;
25449;SDS011;13371;52.080;5.624;2023-04-15T13:26:03;4.65;;;0.70;;
25449;SDS011;13371;52.080;5.624;2023-04-15T13:28:29;0.95;;;0.68;;
25449;SDS011;13371;52.080;5.624;2023-04-15T13:30:55;1.90;;;1.00;;
25449;SDS011;13371;52.080;5.624;2023-04-15T13:33:20;2.35;;;1.10;;
25449;SDS011;13371;52.080;5.624;2023-04-15T13:35:46;0.93;;;0.60;;
25449;SDS011;13371;52.080;5.624;2023-04-15T13:38:11;1.13;;;0.60;;
25449;SDS011;13371;52.080;5.624;2023-04-15T13:40:39;1.35;;;0.60;;
25449;SDS011;13371;52.080;5.624;2023-04-15T13:43:14;0.95;;;0.65;;
25449;SDS011;13371;52.080;5.624;2023-04-15T13:45:40;1.05;;;0.60;;
25449;SDS011;13371;52.080;5.624;2023-04-15T13:48:09;1.85;;;0.82;;
25449;SDS011;13371;52.080;5.624;2023-04-15T13:50:40;1.65;;;0.98;;
25449;SDS011;13371;52.080;5.624;2023-04-15T13:53:09;3.70;;;0.60;;
25449;SDS011;13371;52.080;5.624;2023-04-15T13:55:38;3.00;;;1.05;;
25449;SDS011;13371;52.080;5.624;2023-04-15T13:58:05;2.03;;;1.10;;
25449;SDS011;13371;52.080;5.624;2023-04-15T14:00:32;1.48;;;0.90;;
25449;SDS011;13371;52.080;5.624;2023-04-15T14:02:57;1.35;;;0.88;;
25449;SDS011;13371;52.080;5.624;2023-04-15T14:05:23;1.85;;;0.75;;
25449;SDS011;13371;52.080;5.624;2023-04-15T14:07:48;1.90;;;1.00;;
25449;SDS011;13371;52.080;5.624;2023-04-15T14:10:14;1.42;;;0.70;;
25449;SDS011;13371;52.080;5.624;2023-04-15T14:12:39;2.05;;;0.95;;
25449;SDS011;13371;52.080;5.624;2023-04-15T14:15:05;4.15;;;1.33;;
25449;SDS011;13371;52.080;5.624;2023-04-15T14:17:32;3.78;;;1.00;;
25449;SDS011;13371;52.080;5.624;2023-04-15T14:20:00;1.92;;;0.98;;
25449;SDS011;13371;52.080;5.624;2023-04-15T14:22:29;1.42;;;1.00;;
25449;SDS011;13371;52.080;5.624;2023-04-15T14:28:06;1.88;;;0.98;;
25449;SDS011;13371;52.080;5.624;2023-04-15T14:30:31;1.52;;;1.20;;
25449;SDS011;13371;52.080;5.624;2023-04-15T14:32:57;1.63;;;1.20;;
25449;SDS011;13371;52.080;5.624;2023-04-15T14:35:22;2.15;;;1.00;;
25449;SDS011;13371;52.080;5.624;2023-04-15T14:37:53;1.25;;;0.77;;
25449;SDS011;13371;52.080;5.624;2023-04-15T14:40:22;3.13;;;0.98;;
25449;SDS011;13371;52.080;5.624;2023-04-15T14:43:30;4.00;;;1.30;;
25449;SDS011;13371;52.080;5.624;2023-04-15T14:45:57;4.63;;;1.30;;
25449;SDS011;13371;52.080;5.624;2023-04-15T14:48:22;4.82;;;1.20;;
25449;SDS011;13371;52.080;5.624;2023-04-15T14:50:48;2.33;;;1.30;;
25449;SDS011;13371;52.080;5.624;2023-04-15T14:53:14;3.55;;;1.50;;
25449;SDS011;13371;52.080;5.624;2023-04-15T14:55:39;2.28;;;1.30;;
25449;SDS011;13371;52.080;5.624;2023-04-15T14:58:05;3.58;;;1.20;;
25449;SDS011;13371;52.080;5.624;2023-04-15T15:00:33;5.63;;;1.40;;
25449;SDS011;13371;52.080;5.624;2023-04-15T15:03:04;3.80;;;1.25;;
25449;SDS011;13371;52.080;5.624;2023-04-15T15:05:36;3.15;;;1.63;;
25449;SDS011;13371;52.080;5.624;2023-04-15T15:08:02;5.93;;;1.55;;
25449;SDS011;13371;52.080;5.624;2023-04-15T15:10:28;4.07;;;1.20;;
25449;SDS011;13371;52.080;5.624;2023-04-15T15:12:53;5.47;;;1.13;;